createdAt,value
2022-10-12T00:01:44.879Z,2.27
2022-10-12T00:04:49.350Z,2.70
2022-10-12T00:07:52.347Z,2.50
2022-10-12T00:10:55.339Z,3.00
2022-10-12T00:13:59.820Z,2.50
2022-10-12T00:17:02.836Z,3.23
2022-10-12T00:20:08.655Z,2.47
2022-10-12T00:23:12.015Z,3.10
2022-10-12T00:26:16.728Z,2.30
2022-10-12T00:29:19.930Z,2.67
2022-10-12T00:32:22.931Z,2.40
2022-10-12T00:35:29.454Z,2.60
2022-10-12T00:38:32.407Z,2.90
2022-10-12T00:41:38.441Z,2.40
2022-10-12T00:44:44.265Z,2.17
2022-10-12T00:47:51.502Z,1.97
2022-10-12T00:50:56.820Z,2.13
2022-10-12T00:54:04.955Z,2.70
2022-10-12T00:57:10.227Z,2.77
2022-10-12T01:00:13.915Z,2.80
2022-10-12T01:03:20.969Z,2.50
2022-10-12T01:06:25.299Z,2.73
2022-10-12T01:09:29.587Z,2.57
2022-10-12T01:12:33.805Z,2.20
2022-10-12T01:15:40.955Z,2.37
2022-10-12T01:18:50.590Z,2.90
2022-10-12T01:22:01.962Z,2.93
2022-10-12T01:25:15.921Z,2.37
2022-10-12T01:28:25.461Z,2.47
2022-10-12T01:31:36.958Z,2.00
2022-10-12T01:34:45.819Z,2.33
2022-10-12T01:37:57.018Z,2.53
2022-10-12T01:41:05.910Z,2.57
2022-10-12T01:44:08.907Z,2.63
2022-10-12T01:47:13.412Z,2.37
2022-10-12T01:50:18.740Z,2.37
2022-10-12T01:53:29.263Z,2.93
2022-10-12T01:56:41.553Z,2.30
2022-10-12T01:59:50.911Z,2.70
2022-10-12T02:03:03.138Z,2.67
2022-10-12T02:06:10.333Z,2.20
2022-10-12T02:09:19.437Z,2.50
2022-10-12T02:12:24.959Z,2.43
2022-10-12T02:15:30.511Z,2.77
2022-10-12T02:18:40.230Z,2.40
2022-10-12T02:21:45.667Z,2.57
2022-10-12T02:24:50.107Z,2.40
2022-10-12T02:27:58.285Z,2.27
2022-10-12T02:31:03.362Z,2.43
2022-10-12T02:34:12.431Z,2.50
2022-10-12T02:37:29.340Z,2.43
2022-10-12T02:40:37.430Z,2.50
2022-10-12T02:43:45.391Z,2.73
2022-10-12T02:46:50.167Z,2.27
2022-10-12T02:49:56.144Z,2.97
2022-10-12T02:53:00.066Z,2.70
2022-10-12T02:56:05.792Z,2.20
2022-10-12T02:59:08.767Z,2.50
2022-10-12T03:02:11.748Z,2.77
2022-10-12T03:05:16.262Z,2.83
2022-10-12T03:08:19.221Z,3.07
2022-10-12T03:11:22.184Z,2.93
2022-10-12T03:14:26.880Z,3.30
2022-10-12T03:17:29.825Z,3.37
2022-10-12T03:20:34.145Z,2.77
2022-10-12T03:23:37.233Z,2.90
2022-10-12T03:26:40.805Z,2.53
2022-10-12T03:29:43.783Z,2.80
2022-10-12T03:32:46.805Z,2.70
2022-10-12T03:35:51.268Z,2.87
2022-10-12T03:38:54.220Z,2.90
2022-10-12T03:41:57.174Z,2.60
2022-10-12T03:45:00.146Z,2.20
2022-10-12T03:48:05.061Z,2.53
2022-10-12T03:51:09.701Z,2.20
2022-10-12T03:54:12.707Z,3.03
2022-10-12T03:57:15.691Z,2.93
2022-10-12T04:00:19.020Z,2.50
2022-10-12T04:03:22.574Z,3.20
2022-10-12T04:06:26.888Z,2.67
2022-10-12T04:09:29.868Z,3.10
2022-10-12T04:12:32.869Z,2.63
2022-10-12T04:15:35.860Z,2.33
2022-10-12T04:18:39.017Z,2.33
2022-10-12T04:21:43.337Z,2.00
2022-10-12T04:24:46.316Z,2.60
2022-10-12T04:27:49.257Z,2.27
2022-10-12T04:30:52.266Z,2.33
2022-10-12T04:33:56.798Z,1.90
2022-10-12T04:37:01.162Z,2.53
2022-10-12T04:40:04.611Z,2.47
2022-10-12T04:43:07.573Z,2.27
2022-10-12T04:46:10.588Z,2.93
2022-10-12T04:49:13.647Z,2.30
2022-10-12T04:52:17.941Z,2.70
2022-10-12T04:55:20.922Z,2.07
2022-10-12T04:58:23.937Z,2.30
2022-10-12T05:01:27.030Z,3.63
2022-10-12T05:04:30.107Z,3.87
2022-10-12T05:07:34.507Z,2.60
2022-10-12T05:10:37.488Z,3.40
2022-10-12T05:13:40.445Z,2.43
2022-10-12T05:16:43.468Z,3.00
2022-10-12T05:19:46.454Z,2.93
2022-10-12T05:22:50.774Z,2.43
2022-10-12T05:25:55.681Z,2.20
2022-10-12T05:28:58.709Z,2.23
2022-10-12T05:32:01.687Z,2.50
2022-10-12T05:35:04.921Z,2.17
2022-10-12T05:38:09.220Z,2.37
2022-10-12T05:41:12.247Z,2.33
2022-10-12T05:44:15.240Z,2.43
2022-10-12T05:47:18.215Z,2.20
2022-10-12T05:50:21.295Z,2.33
2022-10-12T05:53:26.083Z,2.63
2022-10-12T05:56:29.167Z,2.97
2022-10-12T05:59:32.139Z,1.97
2022-10-12T06:02:35.876Z,2.13
2022-10-12T06:05:39.084Z,2.10
2022-10-12T06:08:43.414Z,2.67
2022-10-12T06:11:46.409Z,2.63
2022-10-12T06:14:49.767Z,2.40
2022-10-12T06:17:52.745Z,2.40
2022-10-12T06:24:20.814Z,2.30
2022-10-12T06:27:25.133Z,2.40
2022-10-12T06:30:28.170Z,2.53
2022-10-12T06:33:31.339Z,2.70
2022-10-12T06:36:34.483Z,2.70
2022-10-12T06:39:38.764Z,2.90
2022-10-12T06:42:41.736Z,3.70
2022-10-12T06:45:44.717Z,3.50
2022-10-12T06:48:47.665Z,3.80
2022-10-12T06:51:50.670Z,2.73
2022-10-12T06:54:54.963Z,3.40
2022-10-12T06:57:57.953Z,2.67
2022-10-12T07:01:04.057Z,2.60
2022-10-12T07:04:07.113Z,2.73
2022-10-12T07:07:10.254Z,2.40
2022-10-12T07:10:14.568Z,2.10
2022-10-12T07:13:17.525Z,1.80
2022-10-12T07:16:20.498Z,2.77
2022-10-12T07:19:23.472Z,1.83
2022-10-12T07:22:27.143Z,2.00
2022-10-12T07:25:31.691Z,1.70
2022-10-12T07:28:35.493Z,1.80
2022-10-12T07:31:39.008Z,1.47
2022-10-12T07:34:42.474Z,1.60
2022-10-12T07:37:45.623Z,1.63
2022-10-12T07:40:50.024Z,1.60
2022-10-12T07:43:56.730Z,1.67
2022-10-12T07:46:59.754Z,1.67
2022-10-12T07:50:02.808Z,1.87
2022-10-12T07:53:05.855Z,1.80
2022-10-12T07:56:15.860Z,1.50
2022-10-12T07:59:18.918Z,1.70
2022-10-12T08:02:22.132Z,1.80
2022-10-12T08:05:25.650Z,1.57
2022-10-12T08:08:28.620Z,1.73
2022-10-12T08:11:33.043Z,2.17
2022-10-12T08:14:36.001Z,1.93
2022-10-12T08:17:39.176Z,1.50
2022-10-12T08:20:42.332Z,1.80
2022-10-12T08:23:45.667Z,1.77
2022-10-12T08:26:50.062Z,1.80
2022-10-12T08:29:53.204Z,1.73
2022-10-12T08:32:56.181Z,2.07
2022-10-12T08:36:03.090Z,2.00
2022-10-12T08:39:08.661Z,1.47
2022-10-12T08:42:25.131Z,1.90
2022-10-12T08:45:36.688Z,1.83
2022-10-12T08:48:47.217Z,1.50
2022-10-12T08:51:52.955Z,1.70
2022-10-12T08:55:00.257Z,1.90
2022-10-12T08:58:04.930Z,1.50
2022-10-12T09:01:17.055Z,2.00
2022-10-12T09:04:40.271Z,1.90
2022-10-12T09:07:50.110Z,2.00
2022-10-12T09:11:05.866Z,2.10
2022-10-12T09:14:13.332Z,1.83
2022-10-12T09:17:27.582Z,1.57
2022-10-12T09:20:32.709Z,1.73
2022-10-12T09:23:40.044Z,1.57
2022-10-12T09:26:44.709Z,1.70
2022-10-12T09:29:52.175Z,1.90
2022-10-12T09:33:12.836Z,1.43
2022-10-12T09:36:20.415Z,1.43
2022-10-12T09:39:31.899Z,1.50
2022-10-12T09:42:35.468Z,1.53
2022-10-12T09:45:40.031Z,1.63
2022-10-12T09:48:57.562Z,1.53
2022-10-12T09:52:01.555Z,1.40
2022-10-12T09:55:07.597Z,1.20
2022-10-12T09:58:20.390Z,1.43
2022-10-12T10:01:27.666Z,1.67
2022-10-12T10:04:30.959Z,2.10
2022-10-12T10:07:35.273Z,1.60
2022-10-12T10:10:38.317Z,1.20
2022-10-12T10:13:48.262Z,1.33
2022-10-12T10:16:54.911Z,1.50
2022-10-12T10:19:59.223Z,1.30
2022-10-12T10:23:04.805Z,1.30
2022-10-12T10:26:10.520Z,1.03
2022-10-12T10:29:26.936Z,1.23
2022-10-12T10:32:31.640Z,1.43
2022-10-12T10:35:34.654Z,1.50
2022-10-12T10:38:55.080Z,1.20
2022-10-12T10:42:11.369Z,1.23
2022-10-12T10:45:24.436Z,1.10
2022-10-12T10:48:32.821Z,1.20
2022-10-12T10:51:45.551Z,1.40
2022-10-12T10:54:49.579Z,1.10
2022-10-12T10:58:02.032Z,1.30
2022-10-12T11:01:15.078Z,1.73
2022-10-12T11:04:23.850Z,1.10
2022-10-12T11:07:31.557Z,1.30
2022-10-12T11:10:41.423Z,1.00
2022-10-12T11:13:49.730Z,1.07
2022-10-12T11:16:56.630Z,1.17
2022-10-12T11:20:15.845Z,1.20
2022-10-12T11:23:29.566Z,1.27
2022-10-12T11:26:38.099Z,1.10
2022-10-12T11:29:41.267Z,0.90
2022-10-12T11:32:48.509Z,1.63
2022-10-12T11:35:55.453Z,1.17
2022-10-12T11:39:06.676Z,1.20
2022-10-12T11:42:22.984Z,1.27
2022-10-12T11:45:28.488Z,1.17
2022-10-12T11:48:37.756Z,1.40
2022-10-12T11:51:44.736Z,0.97
2022-10-12T11:54:53.785Z,1.47
2022-10-12T11:57:59.939Z,2.60
2022-10-12T12:01:25.867Z,1.17
2022-10-12T12:04:47.743Z,0.90
2022-10-12T12:07:54.708Z,1.00
2022-10-12T12:11:07.395Z,1.30
2022-10-12T12:14:48.347Z,0.60
2022-10-12T12:18:13.495Z,1.27
2022-10-12T12:21:16.567Z,1.17
2022-10-12T12:24:20.988Z,1.13
2022-10-12T12:27:31.490Z,0.83
2022-10-12T12:30:37.705Z,0.80
2022-10-12T12:33:42.768Z,0.77
2022-10-12T12:36:48.565Z,1.20
2022-10-12T12:39:58.515Z,1.20
2022-10-12T12:43:21.192Z,0.90
2022-10-12T12:46:26.727Z,1.17
2022-10-12T12:49:41.119Z,1.13
2022-10-12T12:52:44.377Z,1.40
2022-10-12T12:56:03.486Z,1.30
2022-10-12T12:59:38.051Z,1.27
2022-10-12T13:03:19.978Z,0.87
2022-10-12T13:06:52.729Z,0.90
2022-10-12T13:10:20.848Z,1.27
2022-10-12T13:13:46.466Z,1.00
2022-10-12T13:17:31.689Z,1.10
2022-10-12T13:20:35.638Z,1.70
2022-10-12T13:23:38.771Z,1.00
2022-10-12T13:26:45.188Z,1.10
2022-10-12T13:29:56.098Z,1.17
2022-10-12T13:33:07.558Z,1.10
2022-10-12T13:36:19.043Z,1.10
2022-10-12T13:39:23.183Z,1.10
2022-10-12T13:42:31.221Z,1.13
2022-10-12T13:45:35.624Z,1.20
2022-10-12T13:48:58.660Z,1.07
2022-10-12T13:52:03.353Z,1.53
2022-10-12T13:55:16.842Z,1.00
2022-10-12T13:58:25.363Z,0.83
2022-10-12T14:01:29.719Z,0.77
2022-10-12T14:04:34.162Z,1.20
2022-10-12T14:07:40.428Z,0.83
2022-10-12T14:10:45.341Z,1.03
2022-10-12T14:13:48.562Z,0.80
2022-10-12T14:16:53.150Z,1.07
2022-10-12T14:19:59.797Z,1.27
2022-10-12T14:23:05.855Z,0.90
2022-10-12T14:26:25.598Z,1.33
2022-10-12T14:29:37.749Z,1.10
2022-10-12T14:32:45.590Z,1.00
2022-10-12T14:35:51.129Z,1.00
2022-10-12T14:38:57.074Z,0.87
2022-10-12T14:42:03.996Z,0.83
2022-10-12T14:45:25.462Z,1.00
2022-10-12T14:48:29.891Z,0.80
2022-10-12T14:51:34.307Z,1.00
2022-10-12T14:54:37.267Z,1.00
2022-10-12T14:57:40.197Z,0.80
2022-10-12T15:00:43.606Z,0.97
2022-10-12T15:03:47.955Z,0.87
2022-10-12T15:06:51.275Z,1.00
2022-10-12T15:09:54.575Z,0.80
2022-10-12T15:12:57.624Z,1.10
2022-10-12T15:16:02.623Z,1.10
2022-10-12T15:19:06.952Z,0.83
2022-10-12T15:22:15.124Z,1.17
2022-10-12T15:25:21.876Z,1.07
2022-10-12T15:28:24.885Z,0.73
2022-10-12T15:31:27.878Z,1.10
2022-10-12T15:34:32.220Z,0.70
2022-10-12T15:37:35.143Z,0.90
2022-10-12T15:40:39.091Z,0.80
2022-10-12T15:43:42.271Z,0.87
2022-10-12T15:46:46.167Z,1.13
2022-10-12T15:49:50.577Z,0.97
2022-10-12T15:52:54.390Z,1.10
2022-10-12T15:55:57.426Z,1.00
2022-10-12T15:59:00.425Z,1.53
2022-10-12T16:02:03.462Z,1.13
2022-10-12T16:05:15.451Z,1.00
2022-10-12T16:08:18.420Z,1.30
2022-10-12T16:11:21.734Z,1.03
2022-10-12T16:14:24.742Z,1.60
2022-10-12T16:17:27.685Z,1.27
2022-10-12T16:20:33.721Z,1.20
2022-10-12T16:23:38.411Z,1.03
2022-10-12T16:26:44.854Z,1.20
2022-10-12T16:29:48.095Z,1.10
2022-10-12T16:32:51.034Z,1.60
2022-10-12T16:35:55.371Z,1.20
2022-10-12T16:38:58.331Z,1.20
2022-10-12T16:42:01.389Z,1.13
2022-10-12T16:45:05.417Z,1.20
2022-10-12T16:48:08.460Z,1.40
2022-10-12T16:51:14.167Z,1.43
2022-10-12T16:54:17.287Z,1.30
2022-10-12T16:57:20.661Z,1.43
2022-10-12T17:00:23.810Z,1.30
2022-10-12T17:03:27.378Z,1.40
2022-10-12T17:06:31.951Z,1.80
2022-10-12T17:09:34.962Z,1.40
2022-10-12T17:12:37.931Z,1.50
2022-10-12T17:15:42.284Z,1.60
2022-10-12T17:18:45.238Z,1.80
2022-10-12T17:21:49.871Z,1.40
2022-10-12T17:24:53.234Z,1.63
2022-10-12T17:27:56.186Z,1.80
2022-10-12T17:31:07.860Z,1.80
2022-10-12T17:34:19.502Z,1.37
2022-10-12T17:37:23.808Z,1.17
2022-10-12T17:40:26.803Z,1.30
2022-10-12T17:43:29.855Z,1.60
2022-10-12T17:46:32.939Z,1.53
2022-10-12T17:49:35.924Z,1.40
2022-10-12T17:52:40.651Z,1.53
2022-10-12T17:55:48.531Z,2.03
2022-10-12T17:58:54.701Z,1.40
2022-10-12T18:01:57.781Z,1.63
2022-10-12T18:05:00.763Z,1.40
2022-10-12T18:08:05.179Z,1.70
2022-10-12T18:11:08.743Z,1.97
2022-10-12T18:14:13.059Z,2.00
2022-10-12T18:17:16.047Z,1.60
2022-10-12T18:24:55.086Z,1.87
2022-10-12T18:27:58.085Z,1.73
2022-10-12T18:31:01.375Z,1.70
2022-10-12T18:34:04.657Z,1.70
2022-10-12T18:37:08.185Z,2.10
2022-10-12T18:40:13.307Z,2.17
2022-10-12T18:43:16.304Z,1.93
2022-10-12T18:46:19.258Z,1.50
2022-10-12T18:49:23.163Z,2.00
2022-10-12T18:52:26.141Z,2.00
2022-10-12T18:55:30.492Z,2.00
2022-10-12T18:58:33.487Z,2.27
2022-10-12T19:01:36.966Z,2.20
2022-10-12T19:04:39.938Z,2.17
2022-10-12T19:07:42.887Z,1.70
2022-10-12T19:10:47.170Z,2.20
2022-10-12T19:13:54.746Z,2.30
2022-10-12T19:16:57.717Z,2.00
2022-10-12T19:20:00.720Z,2.30
2022-10-12T19:23:03.696Z,2.10
2022-10-12T19:26:10.234Z,1.90
2022-10-12T19:29:13.261Z,2.23
2022-10-12T19:32:16.628Z,2.33
2022-10-12T19:35:20.414Z,2.07
2022-10-12T19:38:23.872Z,2.10
2022-10-12T19:41:30.798Z,2.07
2022-10-12T19:44:33.772Z,2.13
2022-10-12T19:47:36.731Z,2.50
2022-10-12T19:50:40.226Z,2.07
2022-10-12T19:53:43.575Z,2.50
2022-10-12T19:56:48.047Z,2.73
2022-10-12T19:59:50.980Z,2.53
2022-10-12T20:02:53.983Z,2.27
2022-10-12T20:05:57.049Z,2.63
2022-10-12T20:09:02.051Z,2.23
2022-10-12T20:12:06.605Z,2.37
2022-10-12T20:15:10.815Z,2.20
2022-10-12T20:18:13.738Z,2.40
2022-10-12T20:21:19.396Z,2.10
2022-10-12T20:24:22.389Z,2.07
2022-10-12T20:27:26.790Z,2.00
2022-10-12T20:30:29.782Z,2.20
2022-10-12T20:33:32.790Z,1.90
2022-10-12T20:36:35.759Z,2.13
2022-10-12T20:39:38.879Z,2.53
2022-10-12T20:42:43.729Z,2.30
2022-10-12T20:45:46.670Z,2.10
2022-10-12T20:48:50.905Z,1.97
2022-10-12T20:51:55.458Z,2.20
2022-10-12T20:54:58.400Z,2.40
2022-10-12T20:58:02.746Z,1.93
2022-10-12T21:01:06.815Z,1.80
2022-10-12T21:04:10.596Z,2.07
2022-10-12T21:07:14.467Z,1.80
2022-10-12T21:10:17.552Z,2.43
2022-10-12T21:13:21.844Z,1.73
2022-10-12T21:16:26.970Z,2.37
2022-10-12T21:19:29.982Z,2.30
2022-10-12T21:22:32.940Z,1.80
2022-10-12T21:25:35.903Z,2.00
2022-10-12T21:28:40.311Z,2.17
2022-10-12T21:31:43.369Z,1.87
2022-10-12T21:34:47.435Z,2.13
2022-10-12T21:37:50.375Z,2.00
2022-10-12T21:40:53.302Z,1.90
2022-10-12T21:43:58.978Z,1.80
2022-10-12T21:47:01.928Z,2.13
2022-10-12T21:50:09.085Z,1.93
2022-10-12T21:53:13.678Z,1.90
2022-10-12T21:56:18.882Z,2.00
2022-10-12T21:59:23.204Z,1.80
2022-10-12T22:02:26.143Z,1.93
2022-10-12T22:05:29.083Z,2.10
2022-10-12T22:08:32.059Z,1.90
2022-10-12T22:11:36.494Z,1.83
2022-10-12T22:14:40.827Z,2.20
2022-10-12T22:17:43.781Z,1.87
2022-10-12T22:20:46.694Z,2.17
2022-10-12T22:23:49.680Z,2.53
2022-10-12T22:26:52.753Z,2.10
2022-10-12T22:29:58.763Z,1.90
2022-10-12T22:33:01.711Z,1.70
2022-10-12T22:36:06.196Z,2.10
2022-10-12T22:39:09.125Z,1.93
2022-10-12T22:42:12.092Z,1.93
2022-10-12T22:45:16.797Z,2.67
2022-10-12T22:48:20.315Z,2.27
2022-10-12T22:51:30.192Z,1.77
2022-10-12T22:54:33.161Z,2.10
2022-10-12T22:57:36.103Z,1.97
2022-10-12T23:00:41.027Z,2.00
2022-10-12T23:03:45.445Z,2.80
2022-10-12T23:06:48.401Z,2.43
2022-10-12T23:09:51.433Z,2.40
2022-10-12T23:12:54.434Z,2.03
2022-10-12T23:16:02.135Z,1.87
2022-10-12T23:19:06.661Z,1.63
2022-10-12T23:22:09.605Z,2.10
2022-10-12T23:25:12.571Z,1.93
2022-10-12T23:28:15.523Z,2.67
2022-10-12T23:31:22.876Z,1.93
2022-10-12T23:34:25.913Z,1.77
2022-10-12T23:37:29.878Z,1.90
2022-10-12T23:40:34.759Z,1.90
2022-10-12T23:43:37.762Z,2.43
2022-10-12T23:46:42.034Z,1.87
2022-10-12T23:49:45.477Z,1.53
2022-10-12T23:52:48.457Z,1.93
2022-10-12T23:55:51.970Z,2.13
2022-10-12T23:58:55.054Z,2.30
